Time;durP1;ratioP1;P1;durP2;ratioP2;P2;SDS_P1;SDS_P2;PMS_P1;PMS_P2;Temp;Humidity;BMP_temperature;BMP_pressure;BME280_temperature;BME280_humidity;BME280_pressure;Samples;Min_cycle;Max_cycle;Signal;HPM_P1;HPM_P2
2022/11/10 00:00:34;;;;;;;3.13;2.78;;;8.40;99.90;;;;;;4951065;29;20508;-76
2022/11/10 00:03:20;;;;;;;6.70;3.70;;;8.40;99.90;;;;;;4936672;29;20066;-76
2022/11/10 00:06:06;;;;;;;3.83;3.40;;;8.40;99.90;;;;;;4951327;29;20593;-76
2022/11/10 00:08:51;;;;;;;2.67;2.47;;;8.30;99.90;;;;;;4951378;29;20050;-76
2022/11/10 00:11:36;;;;;;;18.13;4.63;;;8.30;99.90;;;;;;4951262;29;20507;-76
2022/11/10 00:17:23;;;;;;;8.20;3.75;;;8.30;99.90;;;;;;4928044;29;20135;-76
2022/11/10 00:20:09;;;;;;;6.40;2.97;;;8.30;99.90;;;;;;4951051;29;20083;-76
2022/11/10 00:22:55;;;;;;;12.23;4.20;;;8.40;99.90;;;;;;4951095;29;20091;-76
2022/11/10 00:25:39;;;;;;;6.47;5.60;;;8.30;99.90;;;;;;4951037;29;20350;-76
2022/11/10 00:28:23;;;;;;;14.68;3.20;;;8.40;99.90;;;;;;4950843;29;20051;-75
2022/11/10 00:31:09;;;;;;;3.67;2.97;;;8.40;99.90;;;;;;4936404;29;20083;-76
2022/11/10 00:33:53;;;;;;;10.32;3.83;;;8.40;99.90;;;;;;4931868;29;20066;-76
2022/11/10 00:36:37;;;;;;;5.80;3.40;;;8.30;99.90;;;;;;4917562;29;20155;-76
2022/11/10 00:39:22;;;;;;;7.50;1.88;;;8.30;99.90;;;;;;4917032;29;20063;-75
2022/11/10 00:42:06;;;;;;;6.82;3.60;;;8.30;99.90;;;;;;4938084;29;20078;-76
2022/11/10 00:44:51;;;;;;;7.78;3.83;;;8.30;99.90;;;;;;4931636;29;20108;-75
2022/11/10 00:47:36;;;;;;;3.63;2.42;;;8.30;99.90;;;;;;4925356;29;20058;-76
2022/11/10 00:50:20;;;;;;;6.30;3.30;;;8.20;99.90;;;;;;4935407;29;20102;-76
2022/11/10 00:53:04;;;;;;;12.48;3.08;;;8.20;99.90;;;;;;4950521;29;20520;-76
2022/11/10 00:55:49;;;;;;;9.07;4.10;;;8.20;99.90;;;;;;4950136;29;20083;-75
2022/11/10 00:58:34;;;;;;;5.07;2.72;;;8.20;99.90;;;;;;4950326;29;20552;-76
2022/11/10 01:01:20;;;;;;;2.65;1.83;;;8.20;99.90;;;;;;4950249;29;20051;-76
2022/11/10 01:04:05;;;;;;;4.85;3.88;;;8.20;99.90;;;;;;4921959;29;20178;-76
2022/11/10 01:06:51;;;;;;;4.38;3.03;;;8.10;99.90;;;;;;4935856;29;20058;-76
2022/11/10 01:09:35;;;;;;;8.80;3.60;;;8.20;99.90;;;;;;4950027;29;20075;-76
2022/11/10 01:12:19;;;;;;;10.45;4.75;;;8.20;99.90;;;;;;4950003;29;20060;-76
2022/11/10 01:15:04;;;;;;;4.50;1.73;;;8.20;99.90;;;;;;4950150;29;20068;-75
2022/11/10 01:17:50;;;;;;;8.73;2.33;;;8.10;99.90;;;;;;4935425;29;20075;-76
2022/11/10 01:20:34;;;;;;;7.05;2.60;;;8.20;99.90;;;;;;4949752;29;20071;-75
2022/11/10 01:23:19;;;;;;;7.07;3.80;;;8.10;99.90;;;;;;4949835;29;20075;-76
2022/11/10 01:26:05;;;;;;;10.65;4.97;;;8.10;99.90;;;;;;4949620;29;20050;-76
2022/11/10 01:28:49;;;;;;;3.30;2.42;;;8.20;99.90;;;;;;4949549;29;20080;-76
2022/11/10 01:31:34;;;;;;;10.43;4.10;;;8.10;99.90;;;;;;4949664;29;20608;-76
2022/11/10 01:34:19;;;;;;;6.72;2.38;;;8.10;99.90;;;;;;4949776;29;20102;-75
2022/11/10 01:37:04;;;;;;;13.82;3.95;;;8.20;99.90;;;;;;4930524;29;20071;-76
2022/11/10 01:39:48;;;;;;;4.10;2.53;;;8.20;99.90;;;;;;4929254;29;20075;-76
2022/11/10 01:42:50;;;;;;;10.68;3.38;;;8.10;99.90;;;;;;4929525;29;20409;-76
2022/11/10 01:45:40;;;;;;;4.88;3.30;;;8.10;99.90;;;;;;4930591;29;20055;-76
2022/11/10 01:48:32;;;;;;;;;;;8.20;99.90;;;;;;4946014;29;20078;-75
2022/11/10 01:51:25;;;;;;;11.85;3.67;;;8.20;99.90;;;;;;4937317;29;19991;-75
2022/11/10 01:54:16;;;;;;;8.50;3.35;;;8.20;99.90;;;;;;4949454;29;20094;-76
2022/11/10 01:57:04;;;;;;;;;;;8.10;99.90;;;;;;4949721;29;20096;-76
2022/11/10 01:59:49;;;;;;;5.50;3.08;;;8.10;99.90;;;;;;4955746;29;19935;-76
2022/11/10 02:03:06;;;;;;;7.72;2.90;;;8.10;99.90;;;;;;4949276;29;20079;-76
2022/11/10 02:05:51;;;;;;;6.20;3.15;;;8.10;99.90;;;;;;4948932;29;20086;-75
2022/11/10 02:08:35;;;;;;;5.55;3.65;;;8.10;99.90;;;;;;4949339;29;20099;-76
2022/11/10 02:11:21;;;;;;;4.25;3.65;;;8.10;99.90;;;;;;4949062;29;20076;-76
2022/11/10 02:14:06;;;;;;;4.85;3.03;;;8.10;99.90;;;;;;4948145;29;20046;-76
2022/11/10 02:16:50;;;;;;;8.20;3.70;;;8.00;99.90;;;;;;4934722;29;20047;-75
2022/11/10 02:19:41;;;;;;;7.88;3.22;;;8.10;99.90;;;;;;4934799;29;20071;-76
2022/11/10 02:22:25;;;;;;;5.43;4.68;;;8.10;99.90;;;;;;4948835;29;20047;-76
2022/11/10 02:25:16;;;;;;;7.57;3.58;;;8.00;99.90;;;;;;4948854;29;20050;-76
2022/11/10 02:28:01;;;;;;;14.80;4.82;;;8.10;99.90;;;;;;4934551;29;20132;-76
2022/11/10 02:30:45;;;;;;;12.52;3.20;;;8.10;99.90;;;;;;4934603;29;20046;-76
2022/11/10 02:33:29;;;;;;;10.77;4.60;;;8.10;99.90;;;;;;4948767;29;20079;-76
2022/11/10 02:36:13;;;;;;;3.28;2.42;;;8.00;99.90;;;;;;4948610;29;20063;-76
2022/11/10 02:38:58;;;;;;;5.22;2.80;;;8.00;99.90;;;;;;4948479;29;20111;-75
2022/11/10 02:41:42;;;;;;;13.50;5.28;;;8.00;99.90;;;;;;4948774;29;20055;-76
2022/11/10 02:44:27;;;;;;;9.95;3.22;;;8.00;99.90;;;;;;4934239;29;20072;-76
2022/11/10 02:47:12;;;;;;;16.95;3.80;;;8.10;99.90;;;;;;4934263;29;20046;-76
2022/11/10 02:49:56;;;;;;;8.10;3.05;;;8.10;99.90;;;;;;4948382;29;20074;-75
2022/11/10 02:52:40;;;;;;;5.95;3.63;;;8.10;99.90;;;;;;4920839;29;20111;-75
2022/11/10 02:55:26;;;;;;;14.38;4.88;;;8.20;99.90;;;;;;4934027;29;20496;-75
2022/11/10 02:58:10;;;;;;;17.30;3.13;;;8.10;99.90;;;;;;4948609;29;20055;-76
2022/11/10 03:00:54;;;;;;;7.72;2.67;;;8.10;99.90;;;;;;4934331;29;20054;-76
2022/11/10 03:03:38;;;;;;;9.98;3.45;;;8.10;99.90;;;;;;4948414;29;20532;-76
2022/11/10 03:06:22;;;;;;;5.82;3.00;;;8.10;99.90;;;;;;4948122;29;20462;-76
2022/11/10 03:09:07;;;;;;;3.65;2.25;;;8.20;99.90;;;;;;4948524;29;20055;-76
2022/11/10 03:11:51;;;;;;;10.70;2.47;;;8.20;99.90;;;;;;4948473;29;20114;-76
2022/11/10 03:14:35;;;;;;;5.32;2.38;;;8.20;99.90;;;;;;4948296;29;20043;-74
2022/11/10 03:17:19;;;;;;;9.55;4.18;;;8.10;99.90;;;;;;4948461;29;20046;-76
2022/11/10 03:20:04;;;;;;;9.75;4.22;;;8.10;99.90;;;;;;4933665;29;20453;-76
2022/11/10 03:22:48;;;;;;;5.13;2.65;;;8.10;99.90;;;;;;4948304;29;20071;-76
2022/11/10 03:25:33;;;;;;;8.18;4.50;;;8.10;99.90;;;;;;4933812;29;20406;-77
2022/11/10 03:28:17;;;;;;;6.28;3.13;;;8.10;99.90;;;;;;4952236;29;20051;-76
2022/11/10 03:31:02;;;;;;;3.47;2.60;;;8.10;99.90;;;;;;4951760;29;20098;-75
2022/11/10 03:33:46;;;;;;;7.43;1.65;;;8.00;99.90;;;;;;4951723;29;20113;-76
2022/11/10 03:36:31;;;;;;;4.88;2.83;;;8.10;99.90;;;;;;4924297;29;20078;-76
2022/11/10 03:39:15;;;;;;;5.90;3.90;;;8.10;99.90;;;;;;4951538;29;20187;-76
2022/11/10 03:41:59;;;;;;;6.80;3.80;;;8.10;99.90;;;;;;4951846;29;20066;-76
2022/11/10 03:44:43;;;;;;;3.83;3.00;;;8.00;99.90;;;;;;4951698;29;20094;-75
2022/11/10 03:47:28;;;;;;;10.35;3.00;;;8.00;99.90;;;;;;4951607;29;20066;-76
2022/11/10 03:50:12;;;;;;;11.18;4.85;;;8.00;99.90;;;;;;4951206;29;20068;-76
2022/11/10 03:52:57;;;;;;;6.95;2.35;;;7.90;99.90;;;;;;4951460;29;20051;-76
2022/11/10 03:55:41;;;;;;;12.32;4.28;;;8.00;99.90;;;;;;4951597;29;20055;-76
2022/11/10 03:58:25;;;;;;;9.63;5.28;;;8.10;99.90;;;;;;4937047;29;20043;-75
2022/11/10 04:01:09;;;;;;;8.52;3.60;;;8.10;99.90;;;;;;4951338;29;20075;-76
2022/11/10 04:03:55;;;;;;;19.27;4.70;;;8.10;99.90;;;;;;4951256;29;20051;-75
2022/11/10 04:09:42;;;;;;;5.70;2.50;;;8.00;99.90;;;;;;4951583;29;20106;-76
2022/11/10 04:15:41;;;;;;;7.90;3.10;;;8.00;99.90;;;;;;4951222;29;20104;-76
2022/11/10 04:18:28;;;;;;;15.27;4.55;;;7.90;99.90;;;;;;4951364;29;20067;-76
2022/11/10 04:21:12;;;;;;;11.13;3.30;;;7.90;99.90;;;;;;4950712;29;20054;-76
2022/11/10 04:23:57;;;;;;;4.18;3.08;;;7.90;99.90;;;;;;4950895;29;20068;-76
2022/11/10 04:26:43;;;;;;;4.75;3.72;;;8.00;99.90;;;;;;4936488;29;20099;-76
2022/11/10 04:29:27;;;;;;;6.57;4.10;;;7.90;99.90;;;;;;4951031;29;20071;-76
2022/11/10 04:32:11;;;;;;;6.78;4.45;;;7.90;99.90;;;;;;4950774;29;20409;-76
2022/11/10 04:34:56;;;;;;;13.07;3.85;;;7.90;99.90;;;;;;4950560;29;20046;-76
2022/11/10 04:37:40;;;;;;;7.00;4.68;;;7.90;99.90;;;;;;4935900;29;20068;-75
2022/11/10 04:40:25;;;;;;;13.07;4.13;;;7.80;99.90;;;;;;4950545;29;20120;-76
2022/11/10 04:43:09;;;;;;;11.27;3.55;;;7.90;99.90;;;;;;4950696;29;20071;-76
2022/11/10 04:45:54;;;;;;;7.18;4.00;;;7.80;99.90;;;;;;4936266;29;20072;-76
2022/11/10 04:48:39;;;;;;;11.90;3.92;;;7.80;99.90;;;;;;4950415;29;20072;-76
2022/11/10 04:51:32;;;;;;;11.30;4.03;;;7.90;99.90;;;;;;4935764;29;20043;-76
2022/11/10 04:54:16;;;;;;;12.63;3.30;;;7.90;99.90;;;;;;4950481;29;20038;-76
2022/11/10 04:57:01;;;;;;;17.10;3.40;;;8.00;99.90;;;;;;4950504;29;20071;-76
2022/11/10 04:59:45;;;;;;;14.15;4.53;;;8.00;99.90;;;;;;4950387;29;20099;-76
2022/11/10 05:02:29;;;;;;;8.15;2.90;;;7.90;99.90;;;;;;4935709;29;20066;-76
2022/11/10 05:05:13;;;;;;;11.02;4.00;;;7.90;99.90;;;;;;4935632;29;20057;-75
2022/11/10 05:07:58;;;;;;;4.55;3.25;;;7.90;99.90;;;;;;4922276;29;20412;-76
2022/11/10 05:10:42;;;;;;;4.38;2.53;;;8.00;99.90;;;;;;4950137;29;20042;-76
2022/11/10 05:13:27;;;;;;;5.78;4.05;;;8.00;99.90;;;;;;4935574;29;20047;-76
2022/11/10 05:16:12;;;;;;;8.75;3.30;;;8.10;99.90;;;;;;4949818;29;20409;-75
2022/11/10 05:18:57;;;;;;;13.77;4.22;;;8.10;99.90;;;;;;4950166;29;20075;-76
2022/11/10 05:21:41;;;;;;;4.43;2.22;;;8.20;99.90;;;;;;4949896;29;20058;-76
2022/11/10 05:24:25;;;;;;;10.02;3.53;;;8.20;99.90;;;;;;4921899;29;20099;-76
2022/11/10 05:27:09;;;;;;;5.50;2.60;;;8.20;99.90;;;;;;4949963;29;20058;-76
2022/11/10 05:29:54;;;;;;;4.18;3.30;;;8.20;99.90;;;;;;4950015;29;20066;-76
2022/11/10 05:32:38;;;;;;;7.80;3.80;;;8.10;99.90;;;;;;4949452;29;20090;-75
2022/11/10 05:35:24;;;;;;;6.35;4.38;;;8.10;99.90;;;;;;4949334;29;20381;-75
2022/11/10 05:38:09;;;;;;;8.98;3.40;;;8.00;99.90;;;;;;4948271;29;20048;-76
2022/11/10 05:40:53;;;;;;;8.85;3.25;;;8.00;99.90;;;;;;4949331;29;20074;-76
2022/11/10 05:43:37;;;;;;;12.60;5.60;;;8.00;99.90;;;;;;4947923;29;20059;-76
2022/11/10 05:46:22;;;;;;;11.35;3.72;;;8.00;99.90;;;;;;4928262;29;20074;-76
2022/11/10 05:49:06;;;;;;;12.55;3.67;;;8.10;99.90;;;;;;4945266;29;20047;-76
2022/11/10 05:51:50;;;;;;;9.05;3.22;;;8.00;99.90;;;;;;4921241;29;20090;-75
2022/11/10 05:54:35;;;;;;;7.95;3.22;;;7.90;99.90;;;;;;4948976;29;20056;-76
2022/11/10 05:57:20;;;;;;;5.55;3.28;;;7.90;99.90;;;;;;4934762;29;20047;-76
2022/11/10 06:00:05;;;;;;;10.52;4.78;;;7.90;99.90;;;;;;4947530;29;20039;-76
2022/11/10 06:03:04;;;;;;;13.05;5.00;;;7.90;99.90;;;;;;4923802;29;20071;-75
2022/11/10 06:05:48;;;;;;;14.55;4.05;;;7.90;99.90;;;;;;4948835;29;20115;-75
2022/11/10 06:08:33;;;;;;;8.23;3.67;;;8.00;99.90;;;;;;4922178;29;20051;-76
2022/11/10 06:11:19;;;;;;;4.00;2.80;;;8.00;99.90;;;;;;4934233;29;20062;-76
2022/11/10 06:14:04;;;;;;;7.82;3.75;;;8.00;99.90;;;;;;4948895;29;20095;-75
2022/11/10 06:16:48;;;;;;;6.13;2.65;;;8.00;99.90;;;;;;4948634;29;20043;-75
2022/11/10 06:19:33;;;;;;;14.27;3.72;;;8.00;99.90;;;;;;4921044;29;20385;-75
2022/11/10 06:22:17;;;;;;;16.17;4.50;;;8.00;99.90;;;;;;4934212;29;20071;-76
2022/11/10 06:25:02;;;;;;;10.82;3.58;;;7.90;99.90;;;;;;4934276;29;20087;-75
2022/11/10 06:27:47;;;;;;;5.43;2.13;;;7.90;99.90;;;;;;4948680;29;20066;-75
2022/11/10 06:30:34;;;;;;;16.25;4.25;;;7.90;99.90;;;;;;4948611;29;20179;-75
2022/11/10 06:33:18;;;;;;;4.22;2.65;;;7.90;99.90;;;;;;4934237;29;20138;-75
2022/11/10 06:36:03;;;;;;;13.63;3.03;;;7.90;99.90;;;;;;4948671;29;20063;-76
2022/11/10 06:38:48;;;;;;;11.82;3.25;;;7.90;99.90;;;;;;4948299;29;20433;-75
2022/11/10 06:41:33;;;;;;;13.93;5.05;;;8.00;99.90;;;;;;4948339;29;20617;-75
2022/11/10 06:44:18;;;;;;;8.50;3.25;;;8.00;99.90;;;;;;4948051;29;20067;-77
2022/11/10 06:47:02;;;;;;;15.88;4.43;;;7.90;99.90;;;;;;4947031;29;20050;-75
2022/11/10 06:49:47;;;;;;;17.08;4.45;;;7.90;99.90;;;;;;4926608;29;20059;-75
2022/11/10 06:52:31;;;;;;;14.25;4.70;;;8.00;99.90;;;;;;4944808;29;20071;-75
2022/11/10 06:55:16;;;;;;;6.22;2.67;;;8.00;99.90;;;;;;4933277;29;20043;-75
2022/11/10 06:58:00;;;;;;;16.77;2.42;;;8.00;99.90;;;;;;4917910;29;20046;-75
2022/11/10 07:00:45;;;;;;;12.82;2.55;;;8.00;99.90;;;;;;4946133;29;20047;-75
2022/11/10 07:03:30;;;;;;;21.52;3.42;;;8.10;99.90;;;;;;4933004;29;20421;-76
2022/11/10 07:06:14;;;;;;;12.30;3.58;;;8.10;99.90;;;;;;4947272;29;20062;-75
2022/11/10 07:08:59;;;;;;;6.78;2.95;;;8.20;99.90;;;;;;4944305;29;20412;-76
2022/11/10 07:11:43;;;;;;;2.90;2.25;;;8.20;99.90;;;;;;4948677;29;20050;-76
2022/11/10 07:14:28;;;;;;;21.17;3.47;;;8.30;99.90;;;;;;4920234;29;20059;-75
2022/11/10 07:17:13;;;;;;;4.78;3.60;;;8.30;99.90;;;;;;4948894;29;20105;-76
2022/11/10 07:19:57;;;;;;;9.75;3.45;;;8.30;99.90;;;;;;4940411;29;20066;-75
2022/11/10 07:22:42;;;;;;;7.60;3.78;;;8.40;99.90;;;;;;4946804;29;20128;-75
2022/11/10 07:25:27;;;;;;;7.20;2.83;;;8.40;99.90;;;;;;4920114;29;20050;-76
2022/11/10 07:28:12;;;;;;;3.55;2.03;;;8.50;99.90;;;;;;4923649;29;20054;-75
2022/11/10 07:30:57;;;;;;;4.28;2.55;;;8.60;99.90;;;;;;4921682;29;20059;-76
2022/11/10 07:33:42;;;;;;;12.10;4.60;;;8.90;99.90;;;;;;4947866;29;20090;-75
2022/11/10 07:36:27;;;;;;;8.07;3.83;;;9.20;99.90;;;;;;4932395;29;20047;-75
2022/11/10 07:39:12;;;;;;;5.55;2.22;;;9.70;99.90;;;;;;4919634;29;20058;-75
2022/11/10 07:41:56;;;;;;;13.18;4.57;;;9.70;99.90;;;;;;4925065;29;20072;-76
2022/11/10 07:44:41;;;;;;;6.85;2.33;;;9.80;99.90;;;;;;4946049;29;20058;-76
2022/11/10 07:47:25;;;;;;;9.15;3.75;;;10.00;99.90;;;;;;4921989;29;20060;-76
2022/11/10 07:50:10;;;;;;;8.80;4.03;;;10.20;99.90;;;;;;4935837;29;20051;-75
2022/11/10 07:53:07;;;;;;;4.70;3.03;;;10.40;99.90;;;;;;4944994;29;20563;-76
2022/11/10 07:55:52;;;;;;;8.65;3.00;;;11.20;99.90;;;;;;4940790;29;20062;-75
2022/11/10 07:58:36;;;;;;;13.65;2.55;;;12.80;99.90;;;;;;4914529;29;20066;-76
2022/11/10 08:01:21;;;;;;;8.82;3.35;;;14.20;99.90;;;;;;4946577;29;20051;-76
2022/11/10 08:04:05;;;;;;;6.45;2.33;;;15.30;99.90;;;;;;4927830;29;20059;-76
2022/11/10 08:06:50;;;;;;;11.23;2.30;;;16.30;99.90;;;;;;4928358;29;20515;-75
2022/11/10 08:09:34;;;;;;;10.98;3.13;;;16.80;99.90;;;;;;4918512;29;20167;-76
2022/11/10 08:12:19;;;;;;;3.13;2.83;;;17.60;99.90;;;;;;4944390;29;20121;-76
2022/11/10 08:15:04;;;;;;;4.85;2.88;;;17.50;99.90;;;;;;4935593;29;20043;-76
2022/11/10 08:17:49;;;;;;;7.85;2.10;;;17.70;99.90;;;;;;4929049;29;20074;-76
2022/11/10 08:20:33;;;;;;;6.53;2.38;;;17.70;99.90;;;;;;4949191;29;20067;-76
2022/11/10 08:23:18;;;;;;;9.68;2.78;;;18.60;99.90;;;;;;4903750;29;20075;-76
2022/11/10 08:26:02;;;;;;;10.52;3.83;;;19.00;99.90;;;;;;4937852;29;20046;-76
2022/11/10 08:28:47;;;;;;;9.90;2.78;;;18.50;99.90;;;;;;4922516;29;20043;-75
2022/11/10 08:31:33;;;;;;;9.40;2.40;;;18.60;99.90;;;;;;4928401;29;20132;-76
2022/11/10 08:34:17;;;;;;;11.05;2.85;;;19.00;99.90;;;;;;4932197;29;20095;-76
2022/11/10 08:37:01;;;;;;;13.88;1.67;;;19.20;99.90;;;;;;4935803;29;20070;-76
2022/11/10 08:39:45;;;;;;;2.65;1.67;;;19.80;99.90;;;;;;4922194;29;20054;-76
2022/11/10 08:42:31;;;;;;;8.30;2.65;;;20.50;99.90;;;;;;4950139;29;20056;-76
2022/11/10 08:45:15;;;;;;;7.75;3.40;;;20.00;99.90;;;;;;4915952;29;20055;-76
2022/11/10 08:48:04;;;;;;;11.20;2.90;;;20.40;99.90;;;;;;4949461;29;20068;-76
2022/11/10 08:50:50;;;;;;;5.82;2.05;;;20.90;99.90;;;;;;4925435;29;20080;-76
2022/11/10 08:53:35;;;;;;;4.72;2.92;;;21.30;99.90;;;;;;4943999;29;20043;-76
2022/11/10 08:56:20;;;;;;;12.25;2.63;;;20.90;99.90;;;;;;4923884;29;20055;-77
2022/11/10 08:59:04;;;;;;;8.60;3.08;;;21.10;99.90;;;;;;4950053;29;20047;-76
2022/11/10 09:01:49;;;;;;;7.85;2.03;;;21.10;99.90;;;;;;4935328;29;20071;-76
2022/11/10 09:04:33;;;;;;;2.85;2.05;;;21.30;99.90;;;;;;4949781;29;20062;-76
2022/11/10 09:07:18;;;;;;;8.20;1.50;;;22.10;99.90;;;;;;4935441;29;20051;-76
2022/11/10 09:10:02;;;;;;;3.17;2.72;;;22.50;99.90;;;;;;4934921;29;20090;-76
2022/11/10 09:12:47;;;;;;;13.23;4.07;;;22.40;99.90;;;;;;4949590;29;20038;-76
2022/11/10 09:15:33;;;;;;;4.88;1.67;;;23.50;99.90;;;;;;4963215;29;20050;-77
2022/11/10 09:18:18;;;;;;;9.18;1.88;;;24.00;99.50;;;;;;4952326;29;20559;-76
2022/11/10 09:21:10;;;;;;;9.10;2.45;;;23.50;99.40;;;;;;4949464;29;20047;-76
2022/11/10 09:23:54;;;;;;;11.30;2.75;;;24.70;98.30;;;;;;4946396;29;20067;-77
2022/11/10 09:26:38;;;;;;;4.82;2.53;;;24.20;98.70;;;;;;4937895;29;20182;-76
2022/11/10 09:29:24;;;;;;;11.30;2.33;;;23.60;99.30;;;;;;4949194;29;20043;-77
2022/11/10 09:32:09;;;;;;;5.95;1.95;;;23.40;99.00;;;;;;4948644;29;20078;-77
2022/11/10 09:34:53;;;;;;;8.32;2.10;;;23.60;99.50;;;;;;4954001;29;20070;-77
2022/11/10 09:37:39;;;;;;;12.18;3.25;;;23.40;99.10;;;;;;4967954;29;20105;-77
2022/11/10 09:40:47;;;;;;;12.65;2.75;;;22.70;99.40;;;;;;4951478;29;20136;-77
2022/11/10 09:44:03;;;;;;;9.27;4.35;;;23.10;99.50;;;;;;4948530;29;20432;-77
2022/11/10 09:46:53;;;;;;;9.63;3.55;;;23.90;99.20;;;;;;4943904;29;20046;-77
2022/11/10 09:49:45;;;;;;;12.50;3.33;;;24.00;98.80;;;;;;4922110;29;20090;-77
2022/11/10 09:52:33;;;;;;;4.68;2.03;;;22.90;99.80;;;;;;4948497;29;20067;-77
2022/11/10 09:55:47;;;;;;;6.32;1.88;;;22.10;99.90;;;;;;4948565;29;20104;-77
2022/11/10 09:58:43;;;;;;;15.63;2.47;;;22.60;99.40;;;;;;4935601;29;20074;-77
2022/11/10 10:01:42;;;;;;;3.60;2.63;;;22.80;99.90;;;;;;4948393;29;20059;-77
2022/11/10 10:04:54;;;;;;;6.97;3.03;;;23.50;99.30;;;;;;4948769;29;20453;-77
2022/11/10 10:08:06;;;;;;;9.23;2.47;;;22.60;99.90;;;;;;4948644;29;20038;-77
2022/11/10 10:11:26;;;;;;;8.63;2.78;;;23.30;99.10;;;;;;4947986;29;20099;-77
2022/11/10 10:14:15;;;;;;;8.02;2.17;;;22.80;99.80;;;;;;4937555;29;20054;-77
2022/11/10 10:17:09;;;;;;;9.50;4.65;;;23.60;98.90;;;;;;4948124;29;20051;-76
2022/11/10 10:20:35;;;;;;;5.68;3.20;;;23.50;98.60;;;;;;4942985;29;20035;-76
2022/11/10 10:23:34;;;;;;;7.43;2.10;;;22.70;99.50;;;;;;4888653;29;20085;-76
2022/11/10 10:26:32;;;;;;;4.68;1.63;;;23.70;99.90;;;;;;4888445;29;20128;-76
2022/11/10 10:29:36;;;;;;;6.55;2.60;;;23.50;98.90;;;;;;4936505;29;20066;-77
2022/11/10 10:32:21;;;;;;;17.10;2.25;;;23.60;99.20;;;;;;4922890;29;20062;-77
2022/11/10 10:35:08;;;;;;;3.03;2.05;;;23.70;99.20;;;;;;4947856;29;20552;-77
2022/11/10 10:37:56;;;;;;;6.07;2.05;;;23.50;98.20;;;;;;4947970;29;20091;-77
2022/11/10 10:40:42;;;;;;;5.38;2.47;;;22.90;99.50;;;;;;4945071;29;20110;-77
2022/11/10 10:43:26;;;;;;;5.13;2.33;;;22.70;99.20;;;;;;4920697;29;20114;-77
2022/11/10 10:46:17;;;;;;;13.85;2.50;;;22.50;99.90;;;;;;4943727;29;20075;-76
2022/11/10 10:49:16;;;;;;;5.05;1.88;;;21.60;99.90;;;;;;4947552;29;20043;-77
2022/11/10 10:52:14;;;;;;;7.25;2.72;;;21.30;99.90;;;;;;4932242;29;20042;-76
2022/11/10 10:55:01;;;;;;;6.13;2.28;;;21.40;99.90;;;;;;4927333;29;20038;-77
2022/11/10 10:57:50;;;;;;;5.47;3.00;;;20.80;99.90;;;;;;4923961;29;20043;-77
2022/11/10 11:00:46;;;;;;;8.00;2.40;;;20.90;99.90;;;;;;4932067;29;20058;-77
2022/11/10 11:03:48;;;;;;;3.95;2.75;;;20.70;99.90;;;;;;4930744;29;20047;-77
2022/11/10 11:06:34;;;;;;;9.88;2.53;;;20.20;99.90;;;;;;4948492;29;20059;-77
2022/11/10 11:09:24;;;;;;;11.77;4.75;;;20.30;99.90;;;;;;4960972;29;20042;-77
2022/11/10 11:12:11;;;;;;;5.30;3.72;;;20.30;99.90;;;;;;4947220;29;20049;-77
2022/11/10 11:15:20;;;;;;;6.93;3.13;;;19.80;99.90;;;;;;4954283;29;20095;-76
2022/11/10 11:18:15;;;;;;;12.82;2.92;;;19.00;99.90;;;;;;4939747;29;20038;-77
2022/11/10 11:21:01;;;;;;;6.60;2.30;;;18.70;99.90;;;;;;4947400;29;20047;-76
2022/11/10 11:24:24;;;;;;;7.68;2.10;;;18.40;99.90;;;;;;4946552;29;20063;-77
2022/11/10 11:27:16;;;;;;;5.80;2.47;;;18.60;99.90;;;;;;4943241;29;20047;-76
2022/11/10 11:30:17;;;;;;;7.32;2.72;;;18.50;99.90;;;;;;4947059;29;20043;-76
2022/11/10 11:33:10;;;;;;;5.72;2.35;;;18.40;99.90;;;;;;4941762;29;20062;-76
2022/11/10 11:36:25;;;;;;;11.38;3.03;;;18.40;99.90;;;;;;4947018;29;20115;-76
2022/11/10 11:39:24;;;;;;;7.22;2.13;;;18.20;99.90;;;;;;4946990;29;20074;-76
2022/11/10 11:42:27;;;;;;;7.10;1.83;;;18.10;99.90;;;;;;4933076;29;20055;-76
2022/11/10 11:45:35;;;;;;;6.05;3.70;;;18.20;99.90;;;;;;4932110;29;20062;-76
2022/11/10 11:48:32;;;;;;;5.20;1.98;;;18.00;99.90;;;;;;4949454;29;20130;-77
2022/11/10 11:51:27;;;;;;;5.28;2.42;;;18.00;99.90;;;;;;4950783;29;20051;-76
2022/11/10 11:54:36;;;;;;;3.85;1.95;;;18.10;99.90;;;;;;4935524;29;20095;-76
2022/11/10 11:57:58;;;;;;;4.53;1.77;;;18.30;99.90;;;;;;4951252;29;20127;-76
2022/11/10 12:01:08;;;;;;;6.85;1.92;;;18.40;99.90;;;;;;4946750;29;20067;-76
2022/11/10 12:04:14;;;;;;;5.20;1.83;;;18.40;99.90;;;;;;4950561;29;20043;-76
2022/11/10 12:07:26;;;;;;;5.70;3.78;;;18.30;99.90;;;;;;4950845;29;20035;-76
2022/11/10 12:10:29;;;;;;;4.47;2.08;;;18.40;99.90;;;;;;4936474;29;20042;-77
2022/11/10 12:13:20;;;;;;;5.30;1.73;;;18.30;99.90;;;;;;4950825;29;20067;-76
2022/11/10 12:16:25;;;;;;;3.70;2.20;;;18.20;99.90;;;;;;4935302;29;20054;-76
2022/11/10 12:19:27;;;;;;;4.65;1.40;;;17.90;99.90;;;;;;4933020;29;20042;-76
2022/11/10 12:22:23;;;;;;;3.10;1.98;;;18.00;99.90;;;;;;4950701;29;20075;-76
2022/11/10 12:25:23;;;;;;;5.32;1.60;;;18.10;99.90;;;;;;4938278;29;20055;-76
2022/11/10 12:28:22;;;;;;;3.30;1.38;;;18.10;99.90;;;;;;4950401;29;20068;-77
2022/11/10 12:31:16;;;;;;;9.23;2.67;;;18.50;99.90;;;;;;4935559;29;20062;-76
2022/11/10 12:34:37;;;;;;;4.03;1.73;;;18.50;99.90;;;;;;4950207;29;20064;-76
2022/11/10 12:37:29;;;;;;;7.93;1.90;;;18.30;99.90;;;;;;4905958;29;20042;-76
2022/11/10 12:40:21;;;;;;;15.02;3.15;;;18.50;99.90;;;;;;4935443;29;20051;-76
2022/11/10 12:43:20;;;;;;;11.07;2.55;;;18.20;99.90;;;;;;4950811;29;20078;-76
2022/11/10 12:46:09;;;;;;;4.70;1.60;;;18.00;99.90;;;;;;4950243;29;20050;-76
2022/11/10 12:49:12;;;;;;;8.00;2.35;;;17.70;99.90;;;;;;4950265;29;20062;-76
2022/11/10 12:52:15;;;;;;;4.43;1.45;;;17.50;99.90;;;;;;4943656;29;20062;-76
2022/11/10 12:55:00;;;;;;;3.38;1.42;;;17.50;99.90;;;;;;4949057;29;20464;-76
2022/11/10 12:57:44;;;;;;;12.05;1.83;;;17.20;99.90;;;;;;4932661;29;20059;-76
2022/11/10 13:00:36;;;;;;;3.13;1.75;;;17.10;99.90;;;;;;4916652;29;20105;-76
2022/11/10 13:03:28;;;;;;;7.82;1.58;;;16.90;99.90;;;;;;4931390;29;20051;-75
2022/11/10 13:06:35;;;;;;;4.75;1.92;;;16.70;99.90;;;;;;4922254;29;20043;-76
2022/11/10 13:09:29;;;;;;;4.15;1.02;;;16.50;99.90;;;;;;4950056;29;20104;-75
2022/11/10 13:12:18;;;;;;;6.03;1.25;;;16.30;99.90;;;;;;4948945;29;20075;-75
2022/11/10 13:15:34;;;;;;;1.92;1.40;;;16.30;99.90;;;;;;4950084;29;20043;-75
2022/11/10 13:18:29;;;;;;;4.88;1.25;;;16.40;99.90;;;;;;4949202;29;20038;-77
2022/11/10 13:21:14;;;;;;;0.57;0.57;;;16.30;99.90;;;;;;4934400;29;20078;-75
2022/11/10 13:24:01;;;;;;;3.75;1.30;;;16.30;99.90;;;;;;4917517;29;20054;-75
2022/11/10 13:26:48;;;;;;;6.47;1.00;;;16.20;99.90;;;;;;4930660;29;20427;-75
2022/11/10 13:29:42;;;;;;;7.65;1.48;;;16.30;99.90;;;;;;4941906;29;20067;-75
2022/11/10 13:32:33;;;;;;;3.35;0.95;;;16.20;99.90;;;;;;4949445;29;20062;-75
2022/11/10 13:35:27;;;;;;;5.65;2.47;;;16.10;99.90;;;;;;4949673;29;20046;-77
2022/11/10 13:38:30;;;;;;;3.15;2.40;;;15.80;99.90;;;;;;4949527;29;20071;-76
2022/11/10 13:41:14;;;;;;;7.63;1.75;;;15.80;99.90;;;;;;4930226;29;20052;-76
2022/11/10 13:44:00;;;;;;;2.72;1.55;;;15.70;99.90;;;;;;4933903;29;20063;-76
2022/11/10 13:47:08;;;;;;;4.35;2.35;;;15.60;99.90;;;;;;4948779;29;20047;-77
2022/11/10 13:49:55;;;;;;;6.32;1.73;;;15.50;99.90;;;;;;4949229;29;20183;-76
2022/11/10 13:53:01;;;;;;;10.18;2.05;;;15.40;99.90;;;;;;4949186;29;20051;-76
2022/11/10 13:55:49;;;;;;;2.45;1.65;;;15.50;99.90;;;;;;4948794;29;20083;-77
2022/11/10 13:58:34;;;;;;;5.20;2.55;;;15.50;99.90;;;;;;4948075;29;20151;-76
2022/11/10 14:01:24;;;;;;;3.33;2.13;;;15.50;99.90;;;;;;4948974;29;20400;-77
2022/11/10 14:04:40;;;;;;;3.35;2.22;;;15.40;99.90;;;;;;4929711;29;20054;-77
2022/11/10 14:07:30;;;;;;;7.60;2.08;;;15.40;99.90;;;;;;4930195;29;20504;-76
2022/11/10 14:10:24;;;;;;;2.60;2.05;;;15.40;99.90;;;;;;4940816;29;20063;-76
2022/11/10 14:13:37;;;;;;;10.23;3.80;;;15.30;99.90;;;;;;4929449;29;20063;-77
2022/11/10 14:16:27;;;;;;;2.65;1.27;;;15.30;99.90;;;;;;4931255;29;20075;-76
2022/11/10 14:19:36;;;;;;;3.17;1.50;;;15.20;99.90;;;;;;4941042;29;20113;-77
2022/11/10 14:22:23;;;;;;;5.60;1.70;;;15.20;99.90;;;;;;4950158;29;20047;-76
2022/11/10 14:25:16;;;;;;;2.03;1.42;;;15.20;99.90;;;;;;4948445;29;20054;-76
2022/11/10 14:28:02;;;;;;;10.30;2.75;;;15.20;99.90;;;;;;4948350;29;20543;-77
2022/11/10 14:30:51;;;;;;;2.72;1.85;;;15.20;99.90;;;;;;4948348;29;20091;-77
2022/11/10 14:33:36;;;;;;;3.45;1.58;;;15.10;99.90;;;;;;4948596;29;20485;-76
2022/11/10 14:36:21;;;;;;;14.00;2.17;;;15.10;99.90;;;;;;4947852;29;20054;-75
2022/11/10 14:39:06;;;;;;;2.10;1.67;;;15.00;99.90;;;;;;4948100;29;20063;-76
2022/11/10 14:41:50;;;;;;;4.15;1.65;;;15.00;99.90;;;;;;4933766;29;20058;-76
2022/11/10 14:44:35;;;;;;;5.50;1.25;;;14.90;99.90;;;;;;4948303;29;20046;-77
2022/11/10 14:47:29;;;;;;;7.20;1.98;;;14.90;99.90;;;;;;4947975;29;20051;-76
2022/11/10 14:50:14;;;;;;;7.65;2.20;;;14.90;99.90;;;;;;4948046;29;20071;-76
2022/11/10 14:53:08;;;;;;;3.10;1.23;;;14.70;99.90;;;;;;4948006;29;20153;-76